createdAt,value
2017-02-20T00:00:51.493Z,91.47
2017-02-20T00:01:51.497Z,91.19
2017-02-20T00:02:51.482Z,91.47
2017-02-20T00:03:51.474Z,91.38
2017-02-20T00:04:51.454Z,90.8
2017-02-20T00:05:51.443Z,91.19
2017-02-20T00:06:51.435Z,90.99
2017-02-20T00:07:51.430Z,90.71
2017-02-20T00:08:51.409Z,90.71
2017-02-20T00:09:51.409Z,90.71
2017-02-20T00:10:51.392Z,90.61
2017-02-20T00:11:51.385Z,90.71
2017-02-20T00:12:51.386Z,90.71
2017-02-20T00:13:51.368Z,90.71
2017-02-20T00:14:51.357Z,90.71
2017-02-20T00:15:51.344Z,90.61
2017-02-20T00:16:51.332Z,90.61
2017-02-20T00:17:51.315Z,90.61
2017-02-20T00:18:51.313Z,90.61
2017-02-20T00:19:51.303Z,90.52
2017-02-20T00:20:51.295Z,90.61
2017-02-20T00:21:51.279Z,90.42
2017-02-20T00:22:51.287Z,90.05
2017-02-20T00:23:51.276Z,90.23
2017-02-20T00:24:51.247Z,89.95
2017-02-20T00:25:51.256Z,90.8
2017-02-20T00:26:51.235Z,90.9
2017-02-20T00:27:51.211Z,90.52
2017-02-20T00:28:51.196Z,90.8
2017-02-20T00:29:51.193Z,89.95
2017-02-20T00:30:51.181Z,90.14
2017-02-20T00:31:51.177Z,90.23
2017-02-20T00:32:51.166Z,89.76
2017-02-20T00:33:51.148Z,90.14
2017-02-20T00:34:51.145Z,90.99
2017-02-20T00:35:51.136Z,90.14
2017-02-20T00:36:51.120Z,90.42
2017-02-20T00:37:51.108Z,90.23
2017-02-20T00:38:51.099Z,90.42
2017-02-20T00:39:51.106Z,89.86
2017-02-20T00:40:51.079Z,90.14
2017-02-20T00:41:51.068Z,89.67
2017-02-20T00:42:51.063Z,90.23
2017-02-20T00:43:51.040Z,89.86
2017-02-20T00:44:51.036Z,90.05
2017-02-20T00:45:51.021Z,89.67
2017-02-20T00:46:51.018Z,89.86
2017-02-20T00:47:51.000Z,89.95
2017-02-20T00:48:50.991Z,90.05
2017-02-20T00:49:50.993Z,90.05
2017-02-20T00:50:50.984Z,90.14
2017-02-20T00:51:50.977Z,89.76
2017-02-20T00:52:50.956Z,89.67
2017-02-20T00:53:50.945Z,89.76
2017-02-20T00:54:50.926Z,89.76
2017-02-20T00:55:50.920Z,89.76
2017-02-20T00:56:50.903Z,89.67
2017-02-20T00:57:50.900Z,89.76
2017-02-20T00:58:50.883Z,89.86
2017-02-20T00:59:50.908Z,90.05
2017-02-20T01:00:50.872Z,90.23
2017-02-20T01:01:50.866Z,89.19
2017-02-20T01:02:50.853Z,89.47
2017-02-20T01:03:50.827Z,89.38
2017-02-20T01:04:50.833Z,89.67
2017-02-20T01:05:50.833Z,90.05
2017-02-20T01:06:50.808Z,89.86
2017-02-20T01:07:50.797Z,89.38
2017-02-20T01:08:50.779Z,89.57
2017-02-20T01:09:50.767Z,89.28
2017-02-20T01:10:50.768Z,89.38
2017-02-20T01:11:50.792Z,89.57
2017-02-20T01:12:50.747Z,89.38
2017-02-20T01:13:50.742Z,89.38
2017-02-20T01:14:50.730Z,89.38
2017-02-20T01:15:50.718Z,89.38
2017-02-20T01:16:50.696Z,89.28
2017-02-20T01:17:50.684Z,89.38
2017-02-20T01:18:50.682Z,89.28
2017-02-20T01:19:50.667Z,89.19
2017-02-20T01:20:50.660Z,89.38
2017-02-20T01:21:50.642Z,89.28
2017-02-20T01:22:50.637Z,89.38
2017-02-20T01:23:50.620Z,89.47
2017-02-20T01:24:50.622Z,89.47
2017-02-20T01:25:50.601Z,89.38
2017-02-20T01:26:50.586Z,89.28
2017-02-20T01:27:50.595Z,89.28
2017-02-20T01:28:50.571Z,89.38
2017-02-20T01:29:50.564Z,89.28
2017-02-20T01:30:50.556Z,89.19
2017-02-20T01:31:50.544Z,89.28
2017-02-20T01:32:50.538Z,89.28
2017-02-20T01:33:50.521Z,89.28
2017-02-20T01:34:50.514Z,89.38
2017-02-20T01:35:50.504Z,89.67
2017-02-20T01:36:50.487Z,89.28
2017-02-20T01:37:50.486Z,89
2017-02-20T01:38:50.472Z,89.28
2017-02-20T01:39:50.486Z,89.47
2017-02-20T01:40:50.444Z,89.19
2017-02-20T01:41:50.438Z,89.38
2017-02-20T01:42:50.427Z,89.28
2017-02-20T01:43:50.410Z,89.28
2017-02-20T01:44:50.412Z,89.28
2017-02-20T01:45:50.390Z,89.47
2017-02-20T01:46:50.389Z,89.28
2017-02-20T01:47:50.383Z,89.38
2017-02-20T01:48:50.358Z,89.28
2017-02-20T01:49:50.356Z,89.47
2017-02-20T01:50:50.345Z,89.28
2017-02-20T01:51:50.346Z,89.28
2017-02-20T01:52:50.329Z,89.28
2017-02-20T01:53:50.317Z,89.38
2017-02-20T01:54:50.305Z,89.38
2017-02-20T01:55:50.298Z,89.38
2017-02-20T01:56:50.286Z,89.19
2017-02-20T01:57:50.262Z,89.47
2017-02-20T01:58:50.267Z,89.38
2017-02-20T01:59:50.244Z,89.28
2017-02-20T02:00:50.240Z,89.38
2017-02-20T02:01:50.225Z,89.28
2017-02-20T02:02:50.220Z,89.47
2017-02-20T02:03:50.208Z,89.67
2017-02-20T02:04:50.223Z,89.19
2017-02-20T02:05:50.191Z,89.19
2017-02-20T02:06:50.182Z,89.38
2017-02-20T02:07:50.158Z,89.47
2017-02-20T02:08:50.168Z,89.38
2017-02-20T02:09:50.137Z,89.28
2017-02-20T02:10:50.135Z,89.09
2017-02-20T02:11:50.122Z,89.28
2017-02-20T02:12:50.132Z,89.38
2017-02-20T02:13:50.107Z,89.28
2017-02-20T02:14:50.089Z,89.47
2017-02-20T02:15:49.698Z,89.38
2017-02-20T02:16:50.074Z,89.28
2017-02-20T02:17:50.063Z,89.38
2017-02-20T02:18:50.043Z,89.47
2017-02-20T02:19:50.037Z,89.38
2017-02-20T02:20:50.031Z,89.19
2017-02-20T02:21:50.013Z,89.47
2017-02-20T02:22:50.010Z,89.47
2017-02-20T02:23:49.997Z,89.28
2017-02-20T02:24:49.980Z,89.47
2017-02-20T02:25:49.979Z,90.23
2017-02-20T02:26:49.960Z,90.05
2017-02-20T02:27:49.946Z,90.33
2017-02-20T02:28:49.947Z,90.33
2017-02-20T02:29:49.931Z,90.05
2017-02-20T02:30:49.910Z,90.05
2017-02-20T02:31:49.902Z,89.76
2017-02-20T02:32:49.899Z,89.95
2017-02-20T02:33:49.898Z,89.95
2017-02-20T02:34:49.873Z,90.14
2017-02-20T02:35:49.867Z,89.95
2017-02-20T02:36:49.859Z,89.67
2017-02-20T02:37:49.842Z,90.52
2017-02-20T02:38:49.836Z,90.33
2017-02-20T02:39:49.814Z,90.05
2017-02-20T02:40:49.815Z,90.33
2017-02-20T02:41:49.800Z,90.14
2017-02-20T02:42:49.792Z,90.14
2017-02-20T02:43:49.775Z,90.33
2017-02-20T02:44:49.775Z,90.23
2017-02-20T02:45:49.772Z,90.33
2017-02-20T02:46:49.750Z,90.42
2017-02-20T02:47:49.746Z,90.42
2017-02-20T02:48:49.727Z,90.14
2017-02-20T02:49:49.716Z,90.14
2017-02-20T02:50:49.706Z,90.23
2017-02-20T02:51:49.688Z,90.23
2017-02-20T02:52:49.685Z,90.33
2017-02-20T02:53:49.663Z,90.52
2017-02-20T02:54:49.672Z,90.23
2017-02-20T02:55:49.664Z,90.23
2017-02-20T02:56:49.638Z,90.42
2017-02-20T02:57:49.635Z,90.33
2017-02-20T02:58:49.621Z,90.33
2017-02-20T02:59:49.219Z,90.14
2017-02-20T03:00:49.598Z,90.33
2017-02-20T03:01:49.621Z,89.95
2017-02-20T03:02:49.579Z,90.14
2017-02-20T03:03:49.565Z,89.76
2017-02-20T03:04:49.552Z,89.95
2017-02-20T03:05:49.541Z,89.86
2017-02-20T03:06:49.526Z,90.14
2017-02-20T03:07:49.525Z,90.33
2017-02-20T03:08:49.517Z,90.33
2017-02-20T03:09:49.512Z,89.76
2017-02-20T03:10:49.493Z,89.95
2017-02-20T03:11:49.486Z,89.67
2017-02-20T03:12:49.088Z,90.14
2017-02-20T03:13:49.453Z,89.86
2017-02-20T03:14:49.451Z,90.05
2017-02-20T03:15:49.450Z,90.05
2017-02-20T03:16:49.420Z,89.19
2017-02-20T03:17:49.428Z,89.57
2017-02-20T03:18:49.407Z,89.28
2017-02-20T03:19:49.396Z,89.47
2017-02-20T03:20:49.378Z,89.19
2017-02-20T03:21:49.366Z,89.28
2017-02-20T03:22:49.365Z,89.38
2017-02-20T03:23:49.350Z,89.38
2017-02-20T03:24:49.335Z,89.38
2017-02-20T03:25:49.336Z,89.28
2017-02-20T03:26:49.318Z,89.38
2017-02-20T03:27:49.304Z,89.28
2017-02-20T03:28:49.301Z,89.38
2017-02-20T03:29:49.291Z,89.38
2017-02-20T03:30:49.280Z,89.47
2017-02-20T03:31:49.296Z,89.38
2017-02-20T03:32:49.261Z,89.28
2017-02-20T03:33:49.248Z,89.38
2017-02-20T03:34:49.234Z,89.28
2017-02-20T03:35:49.230Z,89.28
2017-02-20T03:36:49.208Z,89.47
2017-02-20T03:37:49.236Z,89.28
2017-02-20T03:38:49.190Z,89.47
2017-02-20T03:39:49.191Z,89.28
2017-02-20T03:40:49.167Z,89.19
2017-02-20T03:41:49.163Z,89.28
2017-02-20T03:42:49.157Z,89.76
2017-02-20T03:43:49.148Z,90.33
2017-02-20T03:44:49.135Z,89.38
2017-02-20T03:45:49.115Z,89.09
2017-02-20T03:46:49.111Z,89.19
2017-02-20T03:47:49.093Z,89.28
2017-02-20T03:48:49.087Z,89.67
2017-02-20T03:49:49.073Z,89.38
2017-02-20T03:50:49.062Z,89.38
2017-02-20T03:51:49.052Z,89.38
2017-02-20T03:52:49.049Z,89.19
2017-02-20T03:53:49.037Z,88.76
2017-02-20T03:54:49.028Z,88.85
2017-02-20T03:55:49.015Z,88.71
2017-02-20T03:56:49.000Z,89
2017-02-20T03:57:48.990Z,89.28
2017-02-20T03:58:48.982Z,89.19
2017-02-20T03:59:48.973Z,89
2017-02-20T04:00:48.969Z,89.09
2017-02-20T04:01:48.955Z,89.19
2017-02-20T04:02:48.936Z,89.09
2017-02-20T04:03:48.934Z,89.47
2017-02-20T04:04:48.917Z,89.47
2017-02-20T04:05:48.918Z,89.47
2017-02-20T04:06:48.911Z,89.47
2017-02-20T04:07:48.893Z,89.28
2017-02-20T04:08:48.879Z,89.28
2017-02-20T04:09:48.870Z,89.19
2017-02-20T04:10:48.854Z,89.38
2017-02-20T04:11:48.843Z,89.28
2017-02-20T04:12:48.838Z,89.38
2017-02-20T04:13:48.822Z,89.28
2017-02-20T04:14:48.834Z,89.38
2017-02-20T04:15:48.809Z,89.28
2017-02-20T04:16:48.794Z,89.61
2017-02-20T04:17:48.779Z,89.57
2017-02-20T04:18:48.779Z,89.28
2017-02-20T04:19:48.766Z,89.09
2017-02-20T04:20:48.759Z,89.47
2017-02-20T04:21:48.738Z,89.52
2017-02-20T04:22:48.732Z,89.38
2017-02-20T04:23:48.717Z,89.38
2017-02-20T04:24:48.712Z,89.38
2017-02-20T04:25:48.702Z,89.28
2017-02-20T04:26:48.691Z,89.38
2017-02-20T04:27:48.696Z,89.09
2017-02-20T04:28:48.675Z,89.28
2017-02-20T04:29:48.665Z,89.47
2017-02-20T04:30:48.645Z,89.47
2017-02-20T04:31:48.634Z,89.38
2017-02-20T04:32:48.631Z,89.47
2017-02-20T04:33:48.625Z,89.09
2017-02-20T04:34:48.603Z,89.19
2017-02-20T04:35:48.602Z,89.28
2017-02-20T04:36:48.597Z,89.19
2017-02-20T04:37:48.578Z,89.38
2017-02-20T04:38:48.569Z,89.09
2017-02-20T04:39:48.555Z,89.09
2017-02-20T04:40:48.539Z,89.47
2017-02-20T04:41:48.532Z,89.28
2017-02-20T04:42:48.539Z,89.28
2017-02-20T04:43:48.511Z,89.67
2017-02-20T04:44:48.509Z,89.95
2017-02-20T04:45:48.495Z,89.57
2017-02-20T04:46:48.490Z,89.67
2017-02-20T04:47:48.481Z,89.09
2017-02-20T04:48:48.465Z,89
2017-02-20T04:49:48.454Z,89.47
2017-02-20T04:50:48.446Z,89
2017-02-20T04:51:48.428Z,89.57
2017-02-20T04:52:48.412Z,89.28
2017-02-20T04:53:48.405Z,89.28
2017-02-20T04:54:48.405Z,89.28
2017-02-20T04:55:48.402Z,89.28
2017-02-20T04:56:48.372Z,89.38
2017-02-20T04:57:48.375Z,89.38
2017-02-20T04:58:48.371Z,89.57
2017-02-20T04:59:48.348Z,89.47
2017-02-20T05:00:48.338Z,90.23
2017-02-20T05:01:48.330Z,90.33
2017-02-20T05:02:48.318Z,89.47
2017-02-20T05:03:48.312Z,89.19
2017-02-20T05:04:48.291Z,89.19
2017-02-20T05:05:48.286Z,89.09
2017-02-20T05:06:48.271Z,89.38
2017-02-20T05:07:48.270Z,89.47
2017-02-20T05:08:48.252Z,89.28
2017-02-20T05:09:48.277Z,89.47
2017-02-20T05:10:48.226Z,89.38
2017-02-20T05:11:48.226Z,89.09
2017-02-20T05:12:48.201Z,89.28
2017-02-20T05:13:48.193Z,89.28
2017-02-20T05:14:48.181Z,89.28
2017-02-20T05:15:48.173Z,89.28
2017-02-20T05:16:48.170Z,89.28
2017-02-20T05:17:48.151Z,89.19
2017-02-20T05:18:48.140Z,89.28
2017-02-20T05:19:48.129Z,89.28
2017-02-20T05:20:48.119Z,89.47
2017-02-20T05:21:48.117Z,89.19
2017-02-20T05:22:48.097Z,89.38
2017-02-20T05:23:48.093Z,89.28
2017-02-20T05:24:48.085Z,89.38
2017-02-20T05:25:48.077Z,89.28
2017-02-20T05:26:48.053Z,89.38
2017-02-20T05:27:48.045Z,89.47
2017-02-20T05:28:48.037Z,89.47
2017-02-20T05:29:48.023Z,88.24
2017-02-20T05:30:48.016Z,89.38
2017-02-20T05:31:48.000Z,89.28
2017-02-20T05:32:47.990Z,89.38
2017-02-20T05:33:47.981Z,88.9
2017-02-20T05:34:47.971Z,89.19
2017-02-20T05:35:47.962Z,89.09
2017-02-20T05:36:47.955Z,89.38
2017-02-20T05:37:47.942Z,89.38
2017-02-20T05:38:48.184Z,89.76
2017-02-20T05:39:47.924Z,90.33
2017-02-20T05:40:47.939Z,89.86
2017-02-20T05:41:47.905Z,89.38
2017-02-20T05:42:47.893Z,89.47
2017-02-20T05:43:47.880Z,88.81
2017-02-20T05:44:47.872Z,88.9
2017-02-20T05:45:47.870Z,88.62
2017-02-20T05:46:47.850Z,88.76
2017-02-20T05:47:47.834Z,88.9
2017-02-20T05:48:47.822Z,89
2017-02-20T05:49:47.811Z,88.05
2017-02-20T05:50:47.810Z,88.15
2017-02-20T05:51:47.789Z,88.43
2017-02-20T05:52:47.781Z,89
2017-02-20T05:53:47.775Z,88.34
2017-02-20T05:54:47.771Z,88.53
2017-02-20T05:55:47.756Z,88.81
2017-02-20T05:56:47.758Z,88.81
2017-02-20T05:57:47.737Z,88.43
2017-02-20T05:58:47.726Z,88.43
2017-02-20T05:59:47.718Z,88.81
2017-02-20T06:00:47.712Z,88.9
2017-02-20T06:01:47.687Z,88.43
2017-02-20T06:02:47.682Z,88.71
2017-02-20T06:03:47.672Z,88.81
2017-02-20T06:04:47.655Z,88.9
2017-02-20T06:05:47.641Z,88.81
2017-02-20T06:06:47.639Z,89.28
2017-02-20T06:07:47.629Z,89.28
2017-02-20T06:08:47.620Z,89.28
2017-02-20T06:09:47.600Z,89.38
2017-02-20T06:10:47.594Z,89.38
2017-02-20T06:11:47.588Z,89.47
2017-02-20T06:12:47.578Z,89.38
2017-02-20T06:13:47.555Z,89.19
2017-02-20T06:14:47.589Z,89.38
2017-02-20T06:15:47.538Z,89.38
2017-02-20T06:16:47.525Z,89.38
2017-02-20T06:17:47.524Z,89.28
2017-02-20T06:18:47.513Z,89.47
2017-02-20T06:19:47.492Z,89.38
2017-02-20T06:20:47.499Z,89.19
2017-02-20T06:21:47.477Z,89.47
2017-02-20T06:22:47.469Z,89
2017-02-20T06:23:47.456Z,88.71
2017-02-20T06:24:47.448Z,88.81
2017-02-20T06:25:47.430Z,88.9
2017-02-20T06:26:47.429Z,89.04
2017-02-20T06:27:47.414Z,89
2017-02-20T06:28:47.399Z,88.9
2017-02-20T06:29:47.394Z,88.9
2017-02-20T06:30:47.378Z,88.81
2017-02-20T06:31:47.369Z,88.53
2017-02-20T06:32:47.366Z,88.81
2017-02-20T06:33:47.355Z,88.9
2017-02-20T06:34:47.343Z,89
2017-02-20T06:35:47.327Z,88.76
2017-02-20T06:36:47.317Z,88.09
2017-02-20T06:37:47.313Z,88.28
2017-02-20T06:38:47.298Z,88.19
2017-02-20T06:39:47.292Z,88.47
2017-02-20T06:40:47.275Z,88.67
2017-02-20T06:41:47.269Z,88.47
2017-02-20T06:42:47.259Z,87.9
2017-02-20T06:43:47.246Z,87.81
2017-02-20T06:44:47.252Z,87.62
2017-02-20T06:45:47.238Z,87.71
2017-02-20T06:46:47.213Z,87.52
2017-02-20T06:47:47.206Z,87.52
2017-02-20T06:48:47.195Z,87.52
2017-02-20T06:49:47.182Z,87.05
2017-02-20T06:50:47.174Z,87.62
2017-02-20T06:51:47.165Z,86.95
2017-02-20T06:52:47.155Z,87.34
2017-02-20T06:53:47.138Z,87.24
2017-02-20T06:54:47.142Z,87.43
2017-02-20T06:55:47.120Z,87.34
2017-02-20T06:56:47.117Z,87.34
2017-02-20T06:57:47.106Z,86.86
2017-02-20T06:58:47.086Z,86.76
2017-02-20T06:59:47.078Z,87.24
2017-02-20T07:00:47.077Z,86.95
2017-02-20T07:01:47.057Z,86.29
2017-02-20T07:02:47.053Z,85.43
2017-02-20T07:03:47.039Z,85.62
2017-02-20T07:04:47.027Z,85.43
2017-02-20T07:05:47.016Z,84.67
2017-02-20T07:06:47.006Z,85.43
2017-02-20T07:07:47.002Z,85.15
2017-02-20T07:08:46.992Z,85.24
2017-02-20T07:09:46.976Z,85.34
2017-02-20T07:10:46.967Z,85.72
2017-02-20T07:11:46.960Z,85.43
2017-02-20T07:12:46.944Z,85.43
2017-02-20T07:13:46.944Z,85.19
2017-02-20T07:14:46.936Z,85.38
2017-02-20T07:15:46.913Z,84.81
2017-02-20T07:16:46.922Z,84.33
2017-02-20T07:17:46.903Z,83.95
2017-02-20T07:18:46.893Z,83.76
2017-02-20T07:19:46.886Z,84.52
2017-02-20T07:20:46.875Z,84.05
2017-02-20T07:21:46.869Z,84.14
2017-02-20T07:22:46.844Z,83.95
2017-02-20T07:23:46.842Z,84.52
2017-02-20T07:24:46.827Z,84.14
2017-02-20T07:25:46.825Z,84.72
2017-02-20T07:26:46.820Z,84.91
2017-02-20T07:27:46.815Z,84.72
2017-02-20T07:28:46.791Z,84.43
2017-02-20T07:29:46.780Z,84.81
2017-02-20T07:30:46.782Z,84.81
2017-02-20T07:31:46.762Z,84.24
2017-02-20T07:32:46.753Z,84.14
2017-02-20T07:33:46.746Z,84.14
2017-02-20T07:34:46.737Z,83.76
2017-02-20T07:35:46.728Z,83.58
2017-02-20T07:36:46.720Z,83.76
2017-02-20T07:37:46.701Z,83.95
2017-02-20T07:38:46.707Z,83.19
2017-02-20T07:39:46.691Z,83.1
2017-02-20T07:40:46.689Z,83.19
2017-02-20T07:41:46.662Z,82.81
2017-02-20T07:42:46.676Z,82.62
2017-02-20T07:43:46.651Z,82.91
2017-02-20T07:44:46.643Z,82.71
2017-02-20T07:45:46.626Z,82.81
2017-02-20T07:46:46.628Z,82.57
2017-02-20T07:47:46.613Z,82.28
2017-02-20T07:48:46.605Z,82.38
2017-02-20T07:49:46.601Z,82.28
2017-02-20T07:50:46.578Z,82.28
2017-02-20T07:51:46.576Z,82
2017-02-20T07:52:46.562Z,81.71
2017-02-20T07:53:46.553Z,81.81
2017-02-20T07:54:46.543Z,81.62
2017-02-20T07:55:46.545Z,82
2017-02-20T07:56:46.534Z,82.28
2017-02-20T07:57:46.521Z,81.52
2017-02-20T07:58:46.513Z,81.14
2017-02-20T07:59:46.502Z,81.62
2017-02-20T08:00:46.488Z,81.24
2017-02-20T08:01:46.478Z,81.24
2017-02-20T08:02:46.487Z,81.62
2017-02-20T08:03:46.470Z,81.62
2017-02-20T08:04:46.450Z,81.43
2017-02-20T08:05:46.455Z,81.52
2017-02-20T08:06:46.440Z,81.52
2017-02-20T08:07:46.440Z,81.33
2017-02-20T08:08:46.412Z,81.43
2017-02-20T08:09:46.416Z,81.62
2017-02-20T08:10:46.403Z,81.52
2017-02-20T08:11:46.395Z,81.43
2017-02-20T08:12:46.414Z,81.05
2017-02-20T08:13:46.385Z,81.24
2017-02-20T08:14:46.367Z,80.95
2017-02-20T08:15:46.365Z,80.57
2017-02-20T08:16:46.353Z,80.66
2017-02-20T08:17:46.363Z,80.66
2017-02-20T08:18:46.332Z,80.38
2017-02-20T08:19:46.326Z,80.76
2017-02-20T08:20:46.314Z,80.66
2017-02-20T08:21:46.310Z,80.76
2017-02-20T08:22:46.301Z,80.66
2017-02-20T08:23:46.286Z,80.66
2017-02-20T08:24:46.269Z,80.76
2017-02-20T08:25:46.263Z,80.76
2017-02-20T08:26:46.255Z,80.57
2017-02-20T08:27:46.259Z,80.66
2017-02-20T08:28:46.244Z,80.57
2017-02-20T08:29:46.236Z,80.76
2017-02-20T08:30:46.225Z,80.95
2017-02-20T08:31:46.211Z,80.42
2017-02-20T08:32:46.208Z,80.61
2017-02-20T08:33:46.204Z,79.94
2017-02-20T08:34:46.184Z,79.47
2017-02-20T08:35:46.173Z,79.38
2017-02-20T08:36:46.170Z,79.57
2017-02-20T08:37:46.165Z,79.47
2017-02-20T08:38:46.156Z,79.38
2017-02-20T08:39:46.144Z,80.04
2017-02-20T08:40:46.142Z,79.66
2017-02-20T08:41:46.129Z,79.09
2017-02-20T08:42:46.111Z,79.19
2017-02-20T08:43:46.120Z,78.42
2017-02-20T08:44:46.106Z,78.71
2017-02-20T08:45:46.096Z,78.56
2017-02-20T08:46:46.080Z,78.52
2017-02-20T08:47:46.073Z,78.27
2017-02-20T08:48:46.063Z,78.37
2017-02-20T08:49:46.052Z,78.17
2017-02-20T08:50:46.048Z,77.22
2017-02-20T08:51:46.047Z,77.7
2017-02-20T08:52:46.039Z,77.61
2017-02-20T08:53:46.033Z,77.51
2017-02-20T08:54:46.017Z,77.22
2017-02-20T08:55:46.005Z,77.51
2017-02-20T08:56:45.996Z,76.94
2017-02-20T08:57:45.995Z,76.75
2017-02-20T08:58:45.981Z,76.84
2017-02-20T08:59:45.983Z,76.65
2017-02-20T09:00:45.974Z,77.13
2017-02-20T09:01:45.960Z,76.56
2017-02-20T09:02:45.952Z,76.75
2017-02-20T09:03:45.961Z,76.18
2017-02-20T09:04:45.935Z,76.08
2017-02-20T09:05:45.938Z,75.42
2017-02-20T09:06:45.935Z,76.27
2017-02-20T09:07:45.923Z,76.08
2017-02-20T09:08:45.921Z,75.89
2017-02-20T09:09:45.897Z,75.89
2017-02-20T09:10:45.895Z,76.08
2017-02-20T09:11:45.900Z,76.27
2017-02-20T09:12:45.871Z,76.18
2017-02-20T09:13:45.881Z,75.79
2017-02-20T09:14:45.857Z,75.99
2017-02-20T09:15:45.860Z,75.99
2017-02-20T09:16:45.850Z,75.79
2017-02-20T09:17:45.850Z,75.79
2017-02-20T09:18:45.827Z,75.79
2017-02-20T09:19:45.826Z,74.94
2017-02-20T09:20:45.810Z,74.88
2017-02-20T09:21:45.806Z,74.98
2017-02-20T09:22:45.409Z,74.79
2017-02-20T09:23:45.797Z,74.6
2017-02-20T09:24:45.800Z,74.21
2017-02-20T09:25:45.775Z,74.5
2017-02-20T09:26:45.766Z,74.21
2017-02-20T09:27:45.775Z,74.4
2017-02-20T09:28:45.778Z,74.5
2017-02-20T09:29:45.755Z,74.31
2017-02-20T09:30:45.745Z,73.55
2017-02-20T09:31:45.741Z,73.65
2017-02-20T09:32:45.335Z,73.26
2017-02-20T09:33:45.735Z,73.65
2017-02-20T09:34:45.712Z,72.78
2017-02-20T09:35:45.699Z,73.26
2017-02-20T09:36:45.717Z,72.78
2017-02-20T09:37:45.684Z,72.6
2017-02-20T09:38:45.679Z,72.6
2017-02-20T09:39:45.932Z,72.34
2017-02-20T09:40:45.681Z,72.41
2017-02-20T09:41:45.660Z,72.34
2017-02-20T09:42:45.654Z,71.77
2017-02-20T09:43:45.664Z,72.16
2017-02-20T09:44:45.646Z,71.39
2017-02-20T09:45:45.638Z,71.48
2017-02-20T09:46:45.630Z,70.92
2017-02-20T09:47:45.627Z,71.01
2017-02-20T09:48:45.623Z,70.72
2017-02-20T09:49:45.611Z,70.34
2017-02-20T09:50:45.610Z,70.09
2017-02-20T09:51:45.606Z,70.09
2017-02-20T09:52:45.219Z,68.47
2017-02-20T09:53:45.194Z,69.04
2017-02-20T09:54:45.576Z,68.66
2017-02-20T09:55:45.569Z,68.85
2017-02-20T09:56:45.570Z,68.85
2017-02-20T09:57:45.555Z,69.43
2017-02-20T09:58:45.555Z,69.52
2017-02-20T09:59:45.161Z,69.43
2017-02-20T10:00:45.548Z,69.14
2017-02-20T10:01:45.540Z,68.76
2017-02-20T10:02:45.534Z,68.95
2017-02-20T10:03:45.518Z,68.95
2017-02-20T10:04:45.124Z,68.57
2017-02-20T10:05:45.525Z,68.38
2017-02-20T10:06:45.500Z,68.85
2017-02-20T10:07:45.107Z,68.66
2017-02-20T10:08:45.492Z,67.71
2017-02-20T10:09:45.477Z,67.9
2017-02-20T10:10:45.489Z,67.9
2017-02-20T10:11:45.085Z,68.09
2017-02-20T10:12:45.466Z,67.99
2017-02-20T10:13:45.453Z,67.8
2017-02-20T10:14:45.446Z,67.42
2017-02-20T10:15:45.450Z,67.71
2017-02-20T10:16:45.445Z,68.18
2017-02-20T10:17:45.435Z,68.09
2017-02-20T10:18:45.437Z,68.18
2017-02-20T10:19:45.426Z,67.23
2017-02-20T10:20:45.423Z,67.33
2017-02-20T10:21:45.406Z,67.52
2017-02-20T10:22:45.412Z,67.14
2017-02-20T10:23:45.403Z,66.94
2017-02-20T10:24:45.398Z,66.38
2017-02-20T10:25:45.377Z,67.14
2017-02-20T10:26:45.383Z,67.14
2017-02-20T10:27:45.368Z,67.14
2017-02-20T10:28:45.374Z,66.66
2017-02-20T10:29:45.364Z,66.94
2017-02-20T10:30:45.352Z,66.75
2017-02-20T10:31:45.353Z,67.04
2017-02-20T10:32:45.342Z,67.23
2017-02-20T10:33:45.345Z,66.56
2017-02-20T10:34:45.332Z,66.85
2017-02-20T10:35:45.334Z,67.42
2017-02-20T10:36:45.332Z,67.04
2017-02-20T10:37:45.321Z,66.6
2017-02-20T10:38:45.314Z,66.69
2017-02-20T10:39:45.306Z,65.64
2017-02-20T10:40:45.287Z,65.83
2017-02-20T10:41:45.285Z,65.74
2017-02-20T10:42:45.283Z,65.17
2017-02-20T10:43:45.293Z,64.59
2017-02-20T10:44:45.267Z,64.88
2017-02-20T10:45:45.270Z,65.07
2017-02-20T10:46:45.271Z,65.07
2017-02-20T10:47:45.248Z,64.97
2017-02-20T10:48:45.246Z,64.97
2017-02-20T10:49:45.248Z,64.97
2017-02-20T10:50:45.240Z,65.55
2017-02-20T10:51:45.239Z,65.55
2017-02-20T10:52:45.229Z,65.55
2017-02-20T10:53:45.229Z,65.36
2017-02-20T10:54:45.210Z,65.55
2017-02-20T10:55:45.212Z,64.97
2017-02-20T10:56:45.209Z,65.17
2017-02-20T10:57:45.207Z,65.45
2017-02-20T10:58:45.189Z,64.12
2017-02-20T10:59:45.201Z,64.4
2017-02-20T11:00:45.174Z,64.88
2017-02-20T11:01:45.173Z,64.21
2017-02-20T11:02:45.173Z,64.02
2017-02-20T11:03:45.164Z,64.21
2017-02-20T11:04:45.160Z,64.21
2017-02-20T11:05:45.161Z,63.83
2017-02-20T11:06:45.148Z,64.4
2017-02-20T11:07:45.137Z,64.21
2017-02-20T11:08:45.134Z,64.12
2017-02-20T11:09:45.128Z,64.02
2017-02-20T11:10:45.132Z,64.21
2017-02-20T11:11:45.113Z,63.54
2017-02-20T11:12:45.117Z,64.21
2017-02-20T11:13:45.102Z,64.4
2017-02-20T11:14:45.101Z,63.92
2017-02-20T11:15:45.096Z,64.53
2017-02-20T11:16:45.090Z,64.02
2017-02-20T11:17:45.085Z,63.76
2017-02-20T11:18:44.684Z,63.48
2017-02-20T11:19:45.070Z,63.67
2017-02-20T11:20:45.066Z,63.07
2017-02-20T11:21:45.056Z,63.92
2017-02-20T11:22:45.054Z,63.64
2017-02-20T11:23:45.046Z,63.64
2017-02-20T11:24:45.042Z,63.67
2017-02-20T11:25:45.051Z,63.67
2017-02-20T11:26:45.048Z,63.39
2017-02-20T11:27:45.024Z,63.45
2017-02-20T11:28:45.030Z,63.86
2017-02-20T11:29:45.023Z,63.64
2017-02-20T11:30:45.005Z,63.54
2017-02-20T11:31:45.017Z,63.67
2017-02-20T11:32:45.008Z,63.39
2017-02-20T11:33:45.004Z,63.96
2017-02-20T11:34:44.990Z,63.39
2017-02-20T11:35:44.987Z,63.76
2017-02-20T11:36:44.980Z,63.1
2017-02-20T11:37:44.983Z,62.91
2017-02-20T11:38:44.982Z,63
2017-02-20T11:39:44.962Z,63.29
2017-02-20T11:40:44.958Z,63.29
2017-02-20T11:41:44.958Z,63.39
2017-02-20T11:42:44.947Z,63.57
2017-02-20T11:43:44.947Z,63.16
2017-02-20T11:44:44.931Z,63.45
2017-02-20T11:45:44.935Z,63.92
2017-02-20T11:46:44.926Z,64.59
2017-02-20T11:47:44.914Z,64.59
2017-02-20T11:48:44.910Z,64.78
2017-02-20T11:49:44.904Z,65.07
2017-02-20T11:50:44.899Z,64.97
2017-02-20T11:51:44.894Z,65.36
2017-02-20T11:52:44.884Z,65.36
2017-02-20T11:53:44.886Z,65.36
2017-02-20T11:54:44.482Z,65.36
2017-02-20T11:55:44.875Z,65.74
2017-02-20T11:56:44.867Z,66.02
2017-02-20T11:57:44.863Z,65.36
2017-02-20T11:58:44.860Z,65.83
2017-02-20T11:59:44.863Z,65.83
2017-02-20T12:00:44.839Z,65.93
2017-02-20T12:01:44.833Z,66.78
2017-02-20T12:02:44.829Z,65.93
2017-02-20T12:03:44.838Z,66.5
2017-02-20T12:04:44.421Z,66.6
2017-02-20T12:05:44.830Z,66.6
2017-02-20T12:06:44.807Z,66.22
2017-02-20T12:07:44.801Z,67.14
2017-02-20T12:08:44.797Z,66.75
2017-02-20T12:09:44.793Z,67.33
2017-02-20T12:10:44.777Z,67.8
2017-02-20T12:11:44.780Z,67.99
2017-02-20T12:12:44.771Z,68.18
2017-02-20T12:13:44.758Z,68.76
2017-02-20T12:14:44.764Z,68.47
2017-02-20T12:15:44.747Z,68.38
2017-02-20T12:16:44.751Z,68.95
2017-02-20T12:17:44.355Z,68.95
2017-02-20T12:18:44.725Z,69.23
2017-02-20T12:19:44.718Z,68.95
2017-02-20T12:20:44.729Z,69.23
2017-02-20T12:21:44.723Z,69.62
2017-02-20T12:22:44.702Z,69.62
2017-02-20T12:23:44.701Z,69.52
2017-02-20T12:24:44.698Z,69.33
2017-02-20T12:25:44.691Z,69.52
2017-02-20T12:26:44.691Z,69.62
2017-02-20T12:27:44.683Z,69.71
2017-02-20T12:28:44.669Z,69.81
2017-02-20T12:29:44.663Z,70.28
2017-02-20T12:30:44.652Z,70.38
2017-02-20T12:31:44.660Z,70.19
2017-02-20T12:32:44.658Z,70.47
2017-02-20T12:33:44.639Z,70.67
2017-02-20T12:34:44.631Z,70.38
2017-02-20T12:35:44.618Z,70.47
2017-02-20T12:36:44.611Z,70.76
2017-02-20T12:37:44.636Z,71.33
2017-02-20T12:38:44.607Z,71.33
2017-02-20T12:39:44.609Z,70.86
2017-02-20T12:40:44.595Z,70.13
2017-02-20T12:41:44.194Z,70.13
2017-02-20T12:42:44.597Z,70.32
2017-02-20T12:43:44.577Z,70.28
2017-02-20T12:44:44.560Z,70.28
2017-02-20T12:45:44.558Z,70.76
2017-02-20T12:46:44.555Z,71.23
2017-02-20T12:47:44.549Z,70.57
2017-02-20T12:48:44.559Z,70.57
2017-02-20T12:49:44.550Z,70.86
2017-02-20T12:50:44.525Z,71.23
2017-02-20T12:51:44.526Z,71.52
2017-02-20T12:52:44.515Z,72.09
2017-02-20T12:53:44.513Z,72.09
2017-02-20T12:54:44.500Z,72
2017-02-20T12:55:44.497Z,71.75